Phaethon — SVAM2 — position and weather

sailwx.info

Track history (hours):
 
Tides and Currents Weather Stations Pressure Air Temp Water Temp Dewpoint Dewpoint Depression Visibility Wind Speed Wind Dir Waves Ship Positions

Phaethon

Last reported at 2016-Jun-21 11:33 UTC. Time now 2016-Aug-28 10:29 UTC.
Position N 15°48' W 018°04'.
Warning: this ship's position is months out of date.

Length 274 m; draft 9.5 m.

Type: Tanker. MMSI: 240836000.

Date/timePositionNaut miles runAvg speedWind from/ knotsBaromVisibWave heightAir tempDewpointWater temp
2016-Jun-21 11:33N 15°48' W 018°04'168 9.9
2016-Jun-20 18:31N 18°36' W 018°06'  
2016-Jun-18 10:11N 27°30' W 015°17'6 9.8
2016-Jun-18 09:33N 27°36' W 015°15'1010.0
2016-Jun-18 08:33N 27°46' W 015°10'1010.0
2016-Jun-18 07:33N 27°55' W 015°06'1010.1
2016-Jun-18 06:33N 28°04' W 015°02'10 9.9
2016-Jun-18 05:34N 28°13' W 014°58'1010.1
2016-Jun-18 04:34N 28°23' W 014°54'1010.0
2016-Jun-18 03:33N 28°32' W 014°49'1010.1
2016-Jun-18 02:34N 28°41' W 014°44'  
2016-Jun-15 18:34N 37°42' W 009°07'1312.7
2016-Jun-15 17:33N 37°51' W 008°56'6 5.6
2016-Jun-15 16:32N 37°57' W 008°53'0 0.0
2016-Jun-15 15:32N 37°57' W 008°53'0 0.0
2016-Jun-15 14:32N 37°57' W 008°53'0 0.0
2016-Jun-15 13:32N 37°57' W 008°53'0 0.0
2016-Jun-15 12:32N 37°57' W 008°53'0 0.0
2016-Jun-15 11:32N 37°57' W 008°53'0 0.0
2016-Jun-15 10:32N 37°57' W 008°53'0 0.0
2016-Jun-15 09:32N 37°57' W 008°53'0 0.0
2016-Jun-15 08:32N 37°57' W 008°53'0 0.0
2016-Jun-15 07:32N 37°57' W 008°53'0 0.0
2016-Jun-15 06:32N 37°57' W 008°53'0 0.0
2016-Jun-15 05:32N 37°57' W 008°53'0 0.0
2016-Jun-15 04:32N 37°57' W 008°53'0 0.0
2016-Jun-15 03:32N 37°57' W 008°53'0 0.0
2016-Jun-15 02:32N 37°57' W 008°53'0 0.0
2016-Jun-15 01:32N 37°57' W 008°53'0 0.0
2016-Jun-15 00:32N 37°57' W 008°53'0 0.0
2016-Jun-14 23:32N 37°57' W 008°53'0 0.0
2016-Jun-14 22:29N 37°57' W 008°53'0 0.0
2016-Jun-14 21:32N 37°57' W 008°53'0 0.0
2016-Jun-14 20:32N 37°57' W 008°53'0 0.0
2016-Jun-14 19:32N 37°57' W 008°53'0 0.0
2016-Jun-14 18:32N 37°57' W 008°53'0 0.0
2016-Jun-14 17:32N 37°57' W 008°53'0 0.0
2016-Jun-14 16:32N 37°57' W 008°53'0 0.0
2016-Jun-14 15:32N 37°57' W 008°53'0 0.0
2016-Jun-14 14:32N 37°57' W 008°53'0 0.0
2016-Jun-14 13:32N 37°57' W 008°53'0 0.0
2016-Jun-14 12:32N 37°57' W 008°53'0 0.0
2016-Jun-14 11:32N 37°57' W 008°53'0 0.0
2016-Jun-14 10:32N 37°57' W 008°53'0 0.0
2016-Jun-14 09:32N 37°57' W 008°53'0 0.0
2016-Jun-14 08:32N 37°57' W 008°53'0 0.0
2016-Jun-14 07:32N 37°57' W 008°53'0 0.0
2016-Jun-14 05:32N 37°57' W 008°53'0 0.0
2016-Jun-14 04:32N 37°57' W 008°53'0 0.0
2016-Jun-14 03:32N 37°57' W 008°53'0 0.0
2016-Jun-14 02:32N 37°57' W 008°53'0 0.0
2016-Jun-14 01:32N 37°57' W 008°53'0 0.0
2016-Jun-14 00:32N 37°57' W 008°53'0 0.0
2016-Jun-13 23:32N 37°57' W 008°53'0 0.0
2016-Jun-13 22:32N 37°57' W 008°53'0 0.0
2016-Jun-13 21:29N 37°57' W 008°53'0 0.0
2016-Jun-13 20:32N 37°57' W 008°53'0 0.0
2016-Jun-13 19:32N 37°57' W 008°53'0 0.0
2016-Jun-13 18:32N 37°57' W 008°53'1 0.6
2016-Jun-13 17:32N 37°56' W 008°53'4 4.3
2016-Jun-13 16:33N 37°52' W 008°54'6 6.5
2016-Jun-13 15:33N 37°46' W 008°56'1212.4
2016-Jun-13 14:33N 37°35' W 009°03'1313.0
2016-Jun-13 13:33N 37°23' W 009°11'1313.0
2016-Jun-13 12:33N 37°12' W 009°18'1413.2
2016-Jun-13 11:28N 36°59' W 009°26'9012.6
2016-Jun-13 04:19N 36°18' W 007°46'1113.6
2016-Jun-13 03:32N 36°14' W 007°33'1613.9
2016-Jun-13 02:24N 36°08' W 007°15'7912.8
2016-Jun-12 20:14N 35°58' W 005°38'811.4
2016-Jun-12 19:33N 35°59' W 005°29'10 9.6
2016-Jun-12 18:33N 36°04' W 005°19'8 8.4
2016-Jun-12 17:33N 36°07' W 005°09'18613.0
2016-Jun-12 03:15N 36°33' W 001°20'1013.0
2016-Jun-12 02:28N 36°35' W 001°07'1412.7
2016-Jun-12 01:21N 36°38' W 000°50'1112.8
2016-Jun-12 00:30N 36°39' W 000°36'1413.0
2016-Jun-11 23:27N 36°42' W 000°20'1413.5
2016-Jun-11 22:25N 36°45' W 000°03'1213.3
2016-Jun-11 21:32N 36°46' E 000°12'1413.5
2016-Jun-11 20:29N 36°49' E 000°29'1413.0
2016-Jun-11 19:25N 36°51' E 000°47'1213.4
2016-Jun-11 18:30N 36°53' E 001°02'1313.6
2016-Jun-11 17:33N 36°55' E 001°18'6513.1
2016-Jun-11 12:33N 37°07' E 002°38'  
Track history (hours):
 
Tides and Currents Weather Stations Pressure Air Temp Water Temp Dewpoint Dewpoint Depression Visibility Wind Speed Wind Dir Waves Ship Positions

Phaethon

Last reported at 2016-Jun-21 11:33 UTC. Time now 2016-Aug-28 10:29 UTC.
Position N 15°48' W 018°04'.
Warning: this ship's position is months out of date.

Length 274 m; draft 9.5 m.

Type: Tanker. MMSI: 240836000.

Date/timePositionNaut miles runAvg speedWind from/ knotsBaromVisibWave heightAir tempDewpointWater temp
2016-Jun-21 11:33N 15°48' W 018°04'168 9.9
2016-Jun-20 18:31N 18°36' W 018°06'  
2016-Jun-18 10:11N 27°30' W 015°17'6 9.8
2016-Jun-18 09:33N 27°36' W 015°15'1010.0
2016-Jun-18 08:33N 27°46' W 015°10'1010.0
2016-Jun-18 07:33N 27°55' W 015°06'1010.1
2016-Jun-18 06:33N 28°04' W 015°02'10 9.9
2016-Jun-18 05:34N 28°13' W 014°58'1010.1
2016-Jun-18 04:34N 28°23' W 014°54'1010.0
2016-Jun-18 03:33N 28°32' W 014°49'1010.1
2016-Jun-18 02:34N 28°41' W 014°44'  
2016-Jun-15 18:34N 37°42' W 009°07'1312.7
2016-Jun-15 17:33N 37°51' W 008°56'6 5.6
2016-Jun-15 16:32N 37°57' W 008°53'0 0.0
2016-Jun-15 15:32N 37°57' W 008°53'0 0.0
2016-Jun-15 14:32N 37°57' W 008°53'0 0.0
2016-Jun-15 13:32N 37°57' W 008°53'0 0.0
2016-Jun-15 12:32N 37°57' W 008°53'0 0.0
2016-Jun-15 11:32N 37°57' W 008°53'0 0.0
2016-Jun-15 10:32N 37°57' W 008°53'0 0.0
2016-Jun-15 09:32N 37°57' W 008°53'0 0.0
2016-Jun-15 08:32N 37°57' W 008°53'0 0.0
2016-Jun-15 07:32N 37°57' W 008°53'0 0.0
2016-Jun-15 06:32N 37°57' W 008°53'0 0.0
2016-Jun-15 05:32N 37°57' W 008°53'0 0.0
2016-Jun-15 04:32N 37°57' W 008°53'0 0.0
2016-Jun-15 03:32N 37°57' W 008°53'0 0.0
2016-Jun-15 02:32N 37°57' W 008°53'0 0.0
2016-Jun-15 01:32N 37°57' W 008°53'0 0.0
2016-Jun-15 00:32N 37°57' W 008°53'0 0.0
2016-Jun-14 23:32N 37°57' W 008°53'0 0.0
2016-Jun-14 22:29N 37°57' W 008°53'0 0.0
2016-Jun-14 21:32N 37°57' W 008°53'0 0.0
2016-Jun-14 20:32N 37°57' W 008°53'0 0.0
2016-Jun-14 19:32N 37°57' W 008°53'0 0.0
2016-Jun-14 18:32N 37°57' W 008°53'0 0.0
2016-Jun-14 17:32N 37°57' W 008°53'0 0.0
2016-Jun-14 16:32N 37°57' W 008°53'0 0.0
2016-Jun-14 15:32N 37°57' W 008°53'0 0.0
2016-Jun-14 14:32N 37°57' W 008°53'0 0.0
2016-Jun-14 13:32N 37°57' W 008°53'0 0.0
2016-Jun-14 12:32N 37°57' W 008°53'0 0.0
2016-Jun-14 11:32N 37°57' W 008°53'0 0.0
2016-Jun-14 10:32N 37°57' W 008°53'0 0.0
2016-Jun-14 09:32N 37°57' W 008°53'0 0.0
2016-Jun-14 08:32N 37°57' W 008°53'0 0.0
2016-Jun-14 07:32N 37°57' W 008°53'0 0.0
2016-Jun-14 05:32N 37°57' W 008°53'0 0.0
2016-Jun-14 04:32N 37°57' W 008°53'0 0.0
2016-Jun-14 03:32N 37°57' W 008°53'0 0.0
2016-Jun-14 02:32N 37°57' W 008°53'0 0.0
2016-Jun-14 01:32N 37°57' W 008°53'0 0.0
2016-Jun-14 00:32N 37°57' W 008°53'0 0.0
2016-Jun-13 23:32N 37°57' W 008°53'0 0.0
2016-Jun-13 22:32N 37°57' W 008°53'0 0.0
2016-Jun-13 21:29N 37°57' W 008°53'0 0.0
2016-Jun-13 20:32N 37°57' W 008°53'0 0.0
2016-Jun-13 19:32N 37°57' W 008°53'0 0.0
2016-Jun-13 18:32N 37°57' W 008°53'1 0.6
2016-Jun-13 17:32N 37°56' W 008°53'4 4.3
2016-Jun-13 16:33N 37°52' W 008°54'6 6.5
2016-Jun-13 15:33N 37°46' W 008°56'1212.4
2016-Jun-13 14:33N 37°35' W 009°03'1313.0
2016-Jun-13 13:33N 37°23' W 009°11'1313.0
2016-Jun-13 12:33N 37°12' W 009°18'1413.2
2016-Jun-13 11:28N 36°59' W 009°26'9012.6
2016-Jun-13 04:19N 36°18' W 007°46'1113.6
2016-Jun-13 03:32N 36°14' W 007°33'1613.9
2016-Jun-13 02:24N 36°08' W 007°15'7912.8
2016-Jun-12 20:14N 35°58' W 005°38'811.4
2016-Jun-12 19:33N 35°59' W 005°29'10 9.6
2016-Jun-12 18:33N 36°04' W 005°19'8 8.4
2016-Jun-12 17:33N 36°07' W 005°09'18613.0
2016-Jun-12 03:15N 36°33' W 001°20'1013.0
2016-Jun-12 02:28N 36°35' W 001°07'1412.7
2016-Jun-12 01:21N 36°38' W 000°50'1112.8
2016-Jun-12 00:30N 36°39' W 000°36'1413.0
2016-Jun-11 23:27N 36°42' W 000°20'1413.5
2016-Jun-11 22:25N 36°45' W 000°03'1213.3
2016-Jun-11 21:32N 36°46' E 000°12'1413.5
2016-Jun-11 20:29N 36°49' E 000°29'1413.0
2016-Jun-11 19:25N 36°51' E 000°47'1213.4
2016-Jun-11 18:30N 36°53' E 001°02'1313.6
2016-Jun-11 17:33N 36°55' E 001°18'6513.1
2016-Jun-11 12:33N 37°07' E 002°38'  

Dump ship's entire track history